createdAt,value
2022-09-14T00:01:29.128Z,99.90
2022-09-14T00:04:01.629Z,99.90
2022-09-14T00:06:29.839Z,99.90
2022-09-14T00:08:58.802Z,99.90
2022-09-14T00:11:27.779Z,99.90
2022-09-14T00:13:56.344Z,99.90
2022-09-14T00:16:26.711Z,99.90
2022-09-14T00:18:57.074Z,99.90
2022-09-14T00:21:24.442Z,99.90
2022-09-14T00:23:51.592Z,99.90
2022-09-14T00:26:21.989Z,99.90
2022-09-14T00:28:56.254Z,99.90
2022-09-14T00:31:25.238Z,99.90
2022-09-14T00:33:53.110Z,99.80
2022-09-14T00:36:24.955Z,99.80
2022-09-14T00:38:52.788Z,99.90
2022-09-14T00:41:22.293Z,99.90
2022-09-14T00:43:54.677Z,99.90
2022-09-14T00:46:22.196Z,99.90
2022-09-14T00:48:49.472Z,99.90
2022-09-14T00:51:17.970Z,99.90
2022-09-14T00:53:44.983Z,99.90
2022-09-14T00:56:12.049Z,99.90
2022-09-14T00:58:39.175Z,99.90
2022-09-14T01:01:06.297Z,99.90
2022-09-14T01:03:33.192Z,99.90
2022-09-14T01:06:13.867Z,99.90
2022-09-14T01:09:20.438Z,99.90
2022-09-14T01:12:12.625Z,99.90
2022-09-14T01:15:00.930Z,99.90
2022-09-14T01:18:06.842Z,99.90
2022-09-14T01:20:59.789Z,99.90
2022-09-14T01:23:50.678Z,99.90
2022-09-14T01:26:32.989Z,99.90
2022-09-14T01:29:26.627Z,99.90
2022-09-14T01:32:17.284Z,99.90
2022-09-14T01:34:51.924Z,99.90
2022-09-14T01:37:31.049Z,99.90
2022-09-14T01:40:05.149Z,99.90
2022-09-14T01:42:33.706Z,99.90
2022-09-14T01:45:07.463Z,99.90
2022-09-14T01:47:36.743Z,99.90
2022-09-14T01:50:10.363Z,99.90
2022-09-14T01:52:45.192Z,99.90
2022-09-14T01:55:19.072Z,99.90
2022-09-14T01:57:54.824Z,99.90
2022-09-14T02:00:22.813Z,99.90
2022-09-14T02:03:08.160Z,99.90
2022-09-14T02:05:40.317Z,99.90
2022-09-14T02:08:07.286Z,99.90
2022-09-14T02:10:34.685Z,99.90
2022-09-14T02:13:02.005Z,99.90
2022-09-14T02:15:28.830Z,99.90
2022-09-14T02:17:55.867Z,99.90
2022-09-14T02:20:32.250Z,99.90
2022-09-14T02:22:59.730Z,99.90
2022-09-14T02:25:27.659Z,99.90
2022-09-14T02:27:54.506Z,99.90
2022-09-14T02:30:21.674Z,99.90
2022-09-14T02:33:17.075Z,99.90
2022-09-14T02:36:11.269Z,99.90
2022-09-14T02:39:02.283Z,99.90
2022-09-14T02:41:55.142Z,99.90
2022-09-14T02:44:46.195Z,99.90
2022-09-14T02:48:03.688Z,99.90
2022-09-14T02:50:36.223Z,99.90
2022-09-14T02:53:21.922Z,99.90
2022-09-14T02:55:54.831Z,99.90
2022-09-14T02:58:21.867Z,99.90
2022-09-14T03:00:49.969Z,99.90
2022-09-14T03:03:20.740Z,99.90
2022-09-14T03:05:48.184Z,99.90
2022-09-14T03:08:15.101Z,99.90
2022-09-14T03:10:43.765Z,99.90
2022-09-14T03:13:11.604Z,99.90
2022-09-14T03:15:38.680Z,99.90
2022-09-14T03:18:09.974Z,99.90
2022-09-14T03:20:39.418Z,99.90
2022-09-14T03:23:07.047Z,99.90
2022-09-14T03:25:37.650Z,99.90
2022-09-14T03:28:05.043Z,99.90
2022-09-14T03:30:32.585Z,99.90
2022-09-14T03:33:00.130Z,99.90
2022-09-14T03:35:29.066Z,99.90
2022-09-14T03:37:56.087Z,99.90
2022-09-14T03:40:23.488Z,99.90
2022-09-14T03:42:51.676Z,99.90
2022-09-14T03:45:20.057Z,99.90
2022-09-14T03:47:47.109Z,99.90
2022-09-14T03:50:15.353Z,99.90
2022-09-14T03:52:42.169Z,99.90
2022-09-14T03:55:09.983Z,99.90
2022-09-14T03:57:36.851Z,99.90
2022-09-14T04:00:06.127Z,99.90
2022-09-14T04:02:38.445Z,99.90
2022-09-14T04:05:06.420Z,99.90
2022-09-14T04:07:33.640Z,99.90
2022-09-14T04:10:00.526Z,99.90
2022-09-14T04:12:27.551Z,99.90
2022-09-14T04:14:54.427Z,99.90
2022-09-14T04:17:21.318Z,99.90
2022-09-14T04:19:48.150Z,99.90
2022-09-14T04:22:14.959Z,99.90
2022-09-14T04:24:41.887Z,99.90
2022-09-14T04:27:08.739Z,99.90
2022-09-14T04:29:35.780Z,99.90
2022-09-14T04:32:03.273Z,99.90
2022-09-14T04:34:30.059Z,99.90
2022-09-14T04:36:57.025Z,99.90
2022-09-14T04:39:24.140Z,99.90
2022-09-14T04:41:50.984Z,99.90
2022-09-14T04:44:17.986Z,99.90
2022-09-14T04:46:46.963Z,99.90
2022-09-14T04:49:15.487Z,99.90
2022-09-14T04:51:42.352Z,99.90
2022-09-14T04:54:12.960Z,99.90
2022-09-14T04:56:40.042Z,99.90
2022-09-14T04:59:07.223Z,99.90
2022-09-14T05:01:39.943Z,99.90
2022-09-14T05:04:07.975Z,99.90
2022-09-14T05:06:37.449Z,99.90
2022-09-14T05:09:06.702Z,99.90
2022-09-14T05:11:35.516Z,99.90
2022-09-14T05:14:02.983Z,99.90
2022-09-14T05:16:32.886Z,99.90
2022-09-14T05:19:02.789Z,99.90
2022-09-14T05:21:32.267Z,99.90
2022-09-14T05:24:04.892Z,99.90
2022-09-14T05:26:32.843Z,99.90
2022-09-14T05:29:02.033Z,99.90
2022-09-14T05:31:31.138Z,99.90
2022-09-14T05:33:58.722Z,99.90
2022-09-14T05:36:26.318Z,99.90
2022-09-14T05:38:53.617Z,99.90
2022-09-14T05:41:20.981Z,99.90
2022-09-14T05:43:50.042Z,99.90
2022-09-14T05:46:19.084Z,99.90
2022-09-14T05:48:46.239Z,99.90
2022-09-14T05:51:15.394Z,99.90
2022-09-14T05:53:43.386Z,99.90
2022-09-14T05:56:13.593Z,99.90
2022-09-14T05:58:41.856Z,99.90
2022-09-14T06:01:17.299Z,99.90
2022-09-14T06:03:44.918Z,99.90
2022-09-14T06:06:14.637Z,99.90
2022-09-14T06:08:42.413Z,99.90
2022-09-14T06:11:18.253Z,99.90
2022-09-14T06:13:45.268Z,99.90
2022-09-14T06:16:14.684Z,99.90
2022-09-14T06:18:43.139Z,99.90
2022-09-14T06:21:12.443Z,99.90
2022-09-14T06:23:39.339Z,99.90
2022-09-14T06:26:06.331Z,99.90
2022-09-14T06:28:34.549Z,99.90
2022-09-14T06:31:02.586Z,99.90
2022-09-14T06:33:29.420Z,99.90
2022-09-14T06:36:05.460Z,99.90
2022-09-14T06:38:33.407Z,99.90
2022-09-14T06:41:02.376Z,99.90
2022-09-14T06:43:32.053Z,99.90
2022-09-14T06:46:04.549Z,99.90
2022-09-14T06:48:35.083Z,99.90
2022-09-14T06:51:18.138Z,99.90
2022-09-14T06:53:46.881Z,99.90
2022-09-14T06:56:14.623Z,99.90
2022-09-14T06:58:42.175Z,99.90
2022-09-14T07:01:12.172Z,99.90
2022-09-14T07:03:39.897Z,99.90
2022-09-14T07:06:10.039Z,99.90
2022-09-14T07:08:38.434Z,99.90
2022-09-14T07:11:07.153Z,99.90
2022-09-14T07:13:34.168Z,99.90
2022-09-14T07:16:01.505Z,99.90
2022-09-14T07:18:28.321Z,99.90
2022-09-14T07:20:55.582Z,99.90
2022-09-14T07:23:22.484Z,99.90
2022-09-14T07:26:00.440Z,99.90
2022-09-14T07:28:27.570Z,99.90
2022-09-14T07:30:58.808Z,99.90
2022-09-14T07:33:26.198Z,99.90
2022-09-14T07:35:53.505Z,99.90
2022-09-14T07:38:30.750Z,99.90
2022-09-14T07:41:07.683Z,99.90
2022-09-14T07:43:35.234Z,99.90
2022-09-14T07:46:06.663Z,99.90
2022-09-14T07:48:35.084Z,99.90
2022-09-14T07:51:07.294Z,99.90
2022-09-14T07:53:43.058Z,99.90
2022-09-14T07:56:11.413Z,99.90
2022-09-14T07:58:38.358Z,99.90
2022-09-14T08:01:08.211Z,99.90
2022-09-14T08:03:35.832Z,99.90
2022-09-14T08:06:05.965Z,99.90
2022-09-14T08:08:35.454Z,99.90
2022-09-14T08:11:11.614Z,99.90
2022-09-14T08:13:40.826Z,99.30
2022-09-14T08:16:08.656Z,99.90
2022-09-14T08:18:36.410Z,99.90
2022-09-14T08:21:09.978Z,99.90
2022-09-14T08:23:37.533Z,99.00
2022-09-14T08:26:07.019Z,99.30
2022-09-14T08:28:34.565Z,98.50
2022-09-14T08:31:06.832Z,98.40
2022-09-14T08:33:35.393Z,97.70
2022-09-14T08:36:02.583Z,98.20
2022-09-14T08:38:29.599Z,98.60
2022-09-14T08:40:58.655Z,99.30
2022-09-14T08:43:27.533Z,99.10
2022-09-14T08:46:03.179Z,99.70
2022-09-14T08:48:35.625Z,99.90
2022-09-14T08:51:05.395Z,99.70
2022-09-14T08:53:37.802Z,99.50
2022-09-14T08:56:18.132Z,98.90
2022-09-14T08:58:49.498Z,99.50
2022-09-14T09:01:46.749Z,98.80
2022-09-14T09:04:45.886Z,99.20
2022-09-14T09:07:59.896Z,99.10
2022-09-14T09:10:28.492Z,98.90
2022-09-14T09:12:59.962Z,99.30
2022-09-14T09:15:31.838Z,98.60
2022-09-14T09:18:05.268Z,98.90
2022-09-14T09:20:45.288Z,99.70
2022-09-14T09:23:12.014Z,99.90
2022-09-14T09:25:51.363Z,99.90
2022-09-14T09:28:19.806Z,99.90
2022-09-14T09:30:46.975Z,99.90
2022-09-14T09:33:22.583Z,99.90
2022-09-14T09:36:07.413Z,99.90
2022-09-14T09:38:35.678Z,99.90
2022-09-14T09:41:11.915Z,99.90
2022-09-14T09:44:01.258Z,99.90
2022-09-14T09:46:31.775Z,99.90
2022-09-14T09:49:02.216Z,99.90
2022-09-14T09:51:31.747Z,99.90
2022-09-14T09:54:31.198Z,99.90
2022-09-14T09:57:04.324Z,99.90
2022-09-14T09:59:49.451Z,99.90
2022-09-14T10:02:32.253Z,99.90
2022-09-14T10:05:18.877Z,99.90
2022-09-14T10:08:00.889Z,99.90
2022-09-14T10:10:37.071Z,99.90
2022-09-14T10:13:14.319Z,99.90
2022-09-14T10:15:41.433Z,99.90
2022-09-14T10:18:18.635Z,99.90
2022-09-14T10:20:54.470Z,99.90
2022-09-14T10:23:21.376Z,99.90
2022-09-14T10:25:53.971Z,99.90
2022-09-14T10:28:22.128Z,99.90
2022-09-14T10:31:18.419Z,99.90
2022-09-14T10:33:52.061Z,99.90
2022-09-14T10:36:43.610Z,99.90
2022-09-14T10:39:36.872Z,99.50
2022-09-14T10:42:17.657Z,99.90
2022-09-14T10:45:22.190Z,99.90
2022-09-14T10:48:00.993Z,99.90
2022-09-14T10:50:52.463Z,99.90
2022-09-14T10:53:31.210Z,99.10
2022-09-14T10:56:22.023Z,99.40
2022-09-14T10:59:17.770Z,99.90
2022-09-14T11:01:50.723Z,99.40
2022-09-14T11:04:26.474Z,99.70
2022-09-14T11:07:04.074Z,98.90
2022-09-14T11:09:44.314Z,99.60
2022-09-14T11:12:14.308Z,99.40
2022-09-14T11:14:58.396Z,98.70
2022-09-14T11:18:07.499Z,99.90
2022-09-14T11:20:46.648Z,99.10
2022-09-14T11:23:29.714Z,99.50
2022-09-14T11:26:05.641Z,99.60
2022-09-14T11:28:55.410Z,99.80
2022-09-14T11:31:35.958Z,99.50
2022-09-14T11:34:28.131Z,98.30
2022-09-14T11:37:08.540Z,97.70
2022-09-14T11:39:44.003Z,99.10
2022-09-14T11:42:20.723Z,98.10
2022-09-14T11:45:02.596Z,99.00
2022-09-14T11:47:39.607Z,98.00
2022-09-14T11:50:26.378Z,98.40
2022-09-14T11:53:18.502Z,98.00
2022-09-14T11:55:48.801Z,98.60
2022-09-14T11:58:24.630Z,98.70
2022-09-14T12:01:26.556Z,98.10
2022-09-14T12:04:16.047Z,98.80
2022-09-14T12:06:46.435Z,98.50
2022-09-14T12:09:16.273Z,98.20
2022-09-14T12:11:48.530Z,97.60
2022-09-14T12:17:38.843Z,97.60
2022-09-14T12:20:43.773Z,98.30
2022-09-14T12:23:25.066Z,97.20
2022-09-14T12:26:07.066Z,97.50
2022-09-14T12:28:37.009Z,98.00
2022-09-14T12:31:03.945Z,97.70
2022-09-14T12:33:30.827Z,98.20
2022-09-14T12:36:01.512Z,98.50
2022-09-14T12:38:31.383Z,97.40
2022-09-14T12:41:08.263Z,97.80
2022-09-14T12:43:35.035Z,96.90
2022-09-14T12:46:03.319Z,96.40
2022-09-14T12:48:48.610Z,95.80
2022-09-14T12:51:27.729Z,96.60
2022-09-14T12:54:09.851Z,96.40
2022-09-14T12:57:07.580Z,96.70
2022-09-14T12:59:55.336Z,95.70
2022-09-14T13:02:57.598Z,96.50
2022-09-14T13:05:28.801Z,96.00
2022-09-14T13:07:56.601Z,96.60
2022-09-14T13:10:33.632Z,96.30
2022-09-14T13:13:17.796Z,96.70
2022-09-14T13:16:05.743Z,97.10
2022-09-14T13:18:37.960Z,96.80
2022-09-14T13:21:20.705Z,97.00
2022-09-14T13:23:48.002Z,96.30
2022-09-14T13:26:29.740Z,96.50
2022-09-14T13:28:58.749Z,96.80
2022-09-14T13:31:33.248Z,96.70
2022-09-14T13:34:00.719Z,97.30
2022-09-14T13:36:31.580Z,96.60
2022-09-14T13:39:00.598Z,96.60
2022-09-14T13:41:29.673Z,96.20
2022-09-14T13:43:58.340Z,96.70
2022-09-14T13:46:26.933Z,96.70
2022-09-14T13:48:54.598Z,96.60
2022-09-14T13:51:27.755Z,97.00
2022-09-14T13:53:57.048Z,96.60
2022-09-14T13:56:34.632Z,96.90
2022-09-14T13:59:07.437Z,96.60
2022-09-14T14:02:03.936Z,96.40
2022-09-14T14:04:39.347Z,96.10
2022-09-14T14:07:13.892Z,96.40
2022-09-14T14:09:44.731Z,96.70
2022-09-14T14:12:20.902Z,96.60
2022-09-14T14:14:58.590Z,96.60
2022-09-14T14:17:32.231Z,96.40
2022-09-14T14:20:20.540Z,96.50
2022-09-14T14:23:04.078Z,96.30
2022-09-14T14:25:36.762Z,96.70
2022-09-14T14:28:06.472Z,96.40
2022-09-14T14:30:39.920Z,96.40
2022-09-14T14:33:13.298Z,96.20
2022-09-14T14:35:40.449Z,96.40
2022-09-14T14:38:07.803Z,96.40
2022-09-14T14:40:34.855Z,96.90
2022-09-14T14:43:02.954Z,96.90
2022-09-14T14:45:33.196Z,97.10
2022-09-14T14:48:03.272Z,97.10
2022-09-14T14:50:34.750Z,96.60
2022-09-14T14:53:02.353Z,97.20
2022-09-14T14:55:29.819Z,97.40
2022-09-14T14:57:59.928Z,97.70
2022-09-14T15:00:27.486Z,97.60
2022-09-14T15:02:54.445Z,98.10
2022-09-14T15:05:21.610Z,97.80
2022-09-14T15:07:48.471Z,96.80
2022-09-14T15:12:44.189Z,96.40
2022-09-14T15:15:17.087Z,95.90
2022-09-14T15:17:44.195Z,96.60
2022-09-14T15:20:12.080Z,96.80
2022-09-14T15:22:39.454Z,96.80
2022-09-14T15:25:07.125Z,96.80
2022-09-14T15:27:33.995Z,96.80
2022-09-14T15:30:00.969Z,97.00
2022-09-14T15:32:27.972Z,97.10
2022-09-14T15:34:55.779Z,97.30
2022-09-14T15:37:22.612Z,96.80
2022-09-14T15:39:50.166Z,96.80
2022-09-14T15:42:20.386Z,97.10
2022-09-14T15:44:47.249Z,97.30
2022-09-14T15:47:15.013Z,97.70
2022-09-14T15:49:42.586Z,97.40
2022-09-14T15:52:10.759Z,97.70
2022-09-14T15:54:38.989Z,98.10
2022-09-14T15:57:08.636Z,97.90
2022-09-14T15:59:35.770Z,98.00
2022-09-14T16:02:03.608Z,98.00
2022-09-14T16:04:36.073Z,98.10
2022-09-14T16:07:03.103Z,98.30
2022-09-14T16:09:30.138Z,98.10
2022-09-14T16:12:01.451Z,98.30
2022-09-14T16:14:28.852Z,98.70
2022-09-14T16:16:55.771Z,98.40
2022-09-14T16:19:22.703Z,98.90
2022-09-14T16:21:53.598Z,98.60
2022-09-14T16:24:22.432Z,99.40
2022-09-14T16:26:49.374Z,99.60
2022-09-14T16:29:18.170Z,99.90
2022-09-14T16:31:47.353Z,99.90
2022-09-14T16:34:18.493Z,99.90
2022-09-14T16:36:45.641Z,99.90
2022-09-14T16:39:13.845Z,99.90
2022-09-14T16:41:40.635Z,99.90
2022-09-14T16:44:07.777Z,99.90
2022-09-14T16:46:34.784Z,99.90
2022-09-14T16:49:01.480Z,99.90
2022-09-14T16:51:29.286Z,99.90
2022-09-14T16:53:56.514Z,99.90
2022-09-14T16:56:24.169Z,99.90
2022-09-14T16:58:52.139Z,99.90
2022-09-14T17:01:20.620Z,99.90
2022-09-14T17:03:48.198Z,99.90
2022-09-14T17:06:16.279Z,99.90
2022-09-14T17:08:44.062Z,99.90
2022-09-14T17:11:11.473Z,99.90
2022-09-14T17:13:38.234Z,99.90
2022-09-14T17:16:05.054Z,99.90
2022-09-14T17:21:23.673Z,99.90
2022-09-14T17:23:50.442Z,99.90
2022-09-14T17:26:18.371Z,99.90
2022-09-14T17:28:45.893Z,99.90
2022-09-14T17:31:16.657Z,99.90
2022-09-14T17:33:43.428Z,99.90
2022-09-14T17:36:10.262Z,99.90
2022-09-14T17:38:38.218Z,99.90
2022-09-14T17:41:21.388Z,99.90
2022-09-14T17:43:52.185Z,99.90
2022-09-14T17:46:19.625Z,99.90
2022-09-14T17:48:46.429Z,99.90
2022-09-14T17:51:14.871Z,99.90
2022-09-14T17:53:43.354Z,99.90
2022-09-14T17:56:11.502Z,99.90
2022-09-14T17:58:38.393Z,99.90
2022-09-14T18:01:06.754Z,99.90
2022-09-14T18:03:33.809Z,99.90
2022-09-14T18:06:00.782Z,99.90
2022-09-14T18:08:27.824Z,99.90
2022-09-14T18:10:54.980Z,99.90
2022-09-14T18:13:22.262Z,99.90
2022-09-14T18:15:54.629Z,99.90
2022-09-14T18:18:21.625Z,99.90
2022-09-14T18:20:48.807Z,99.90
2022-09-14T18:23:16.605Z,99.90
2022-09-14T18:25:44.403Z,99.90
2022-09-14T18:28:12.028Z,99.90
2022-09-14T18:30:43.421Z,99.90
2022-09-14T18:33:10.538Z,99.90
2022-09-14T18:35:38.308Z,99.90
2022-09-14T18:38:06.055Z,99.90
2022-09-14T18:40:34.214Z,99.90
2022-09-14T18:45:29.655Z,99.90
2022-09-14T18:47:57.297Z,99.90
2022-09-14T18:50:24.570Z,99.90
2022-09-14T18:52:52.002Z,99.90
2022-09-14T18:55:19.428Z,99.90
2022-09-14T18:57:47.531Z,99.90
2022-09-14T19:00:18.510Z,99.90
2022-09-14T19:02:51.058Z,99.90
2022-09-14T19:05:18.211Z,99.90
2022-09-14T19:07:45.385Z,99.90
2022-09-14T19:10:12.377Z,99.90
2022-09-14T19:12:39.602Z,99.90
2022-09-14T19:15:07.907Z,99.90
2022-09-14T19:17:35.535Z,99.90
2022-09-14T19:20:03.476Z,99.90
2022-09-14T19:22:30.737Z,99.90
2022-09-14T19:24:58.046Z,99.90
2022-09-14T19:27:25.357Z,99.90
2022-09-14T19:29:52.670Z,99.90
2022-09-14T19:32:19.872Z,99.90
2022-09-14T19:34:47.179Z,99.90
2022-09-14T19:37:14.409Z,99.90
2022-09-14T19:39:41.643Z,99.90
2022-09-14T19:42:09.005Z,99.90
2022-09-14T19:44:36.694Z,99.90
2022-09-14T19:47:03.894Z,99.90
2022-09-14T19:49:31.289Z,99.90
2022-09-14T19:51:58.416Z,99.90
2022-09-14T19:54:25.211Z,99.90
2022-09-14T19:56:52.368Z,99.90
2022-09-14T19:59:19.152Z,99.90
2022-09-14T20:01:46.437Z,99.90
2022-09-14T20:04:13.997Z,99.90
2022-09-14T20:06:42.809Z,99.90
2022-09-14T20:09:11.658Z,99.90
2022-09-14T20:11:39.823Z,99.90
2022-09-14T20:14:08.488Z,99.90
2022-09-14T20:16:37.081Z,99.90
2022-09-14T20:19:06.358Z,99.90
2022-09-14T20:21:33.511Z,99.90
2022-09-14T20:24:17.631Z,99.90
2022-09-14T20:26:46.099Z,99.90
2022-09-14T20:29:13.340Z,99.90
2022-09-14T20:31:40.147Z,99.90
2022-09-14T20:34:06.934Z,99.90
2022-09-14T20:36:33.725Z,99.90
2022-09-14T20:39:00.490Z,99.90
2022-09-14T20:41:28.973Z,99.90
2022-09-14T20:43:55.885Z,99.90
2022-09-14T20:46:24.424Z,99.90
2022-09-14T20:48:51.328Z,99.90
2022-09-14T20:51:37.374Z,99.90
2022-09-14T20:54:05.143Z,99.90
2022-09-14T20:56:32.742Z,99.90
2022-09-14T20:59:00.330Z,99.90
2022-09-14T21:01:29.317Z,99.90
2022-09-14T21:04:00.771Z,99.90
2022-09-14T21:06:27.545Z,99.90
2022-09-14T21:08:54.485Z,99.90
2022-09-14T21:11:22.708Z,99.90
2022-09-14T21:13:50.430Z,99.90
2022-09-14T21:16:18.868Z,99.90
2022-09-14T21:18:46.615Z,99.90
2022-09-14T21:21:14.707Z,99.90
2022-09-14T21:23:41.885Z,99.90
2022-09-14T21:26:09.455Z,99.90
2022-09-14T21:28:37.031Z,99.90
2022-09-14T21:31:08.134Z,99.90
2022-09-14T21:33:35.454Z,99.90
2022-09-14T21:36:03.624Z,99.90
2022-09-14T21:38:30.414Z,99.90
2022-09-14T21:40:57.160Z,99.90
2022-09-14T21:43:23.970Z,99.90
2022-09-14T21:45:50.984Z,99.90
2022-09-14T21:48:17.736Z,99.90
2022-09-14T21:50:47.419Z,99.90
2022-09-14T21:53:14.380Z,99.90
2022-09-14T21:55:41.427Z,99.90
2022-09-14T21:58:08.187Z,99.90
2022-09-14T22:00:34.922Z,99.90
2022-09-14T22:03:01.785Z,99.90
2022-09-14T22:05:28.570Z,99.90
2022-09-14T22:07:55.341Z,99.90
2022-09-14T22:10:22.173Z,99.90
2022-09-14T22:12:49.155Z,99.90
2022-09-14T22:15:15.888Z,99.90
2022-09-14T22:17:42.605Z,99.90
2022-09-14T22:20:09.424Z,99.90
2022-09-14T22:22:36.142Z,99.90
2022-09-14T22:25:03.518Z,99.90
2022-09-14T22:27:30.218Z,99.90
2022-09-14T22:29:57.196Z,99.90
2022-09-14T22:32:23.918Z,99.90
2022-09-14T22:34:50.719Z,99.90
2022-09-14T22:37:17.408Z,99.90
2022-09-14T22:39:44.385Z,99.90
2022-09-14T22:42:11.365Z,99.90
2022-09-14T22:44:38.099Z,99.90
2022-09-14T22:47:04.847Z,99.90
2022-09-14T22:49:31.801Z,99.90
2022-09-14T22:51:58.565Z,99.90
2022-09-14T22:54:25.329Z,99.90
2022-09-14T22:56:52.164Z,99.90
2022-09-14T22:59:19.056Z,99.90
2022-09-14T23:01:46.036Z,99.90
2022-09-14T23:04:13.644Z,99.90
2022-09-14T23:06:42.037Z,99.90
2022-09-14T23:09:09.689Z,99.90
2022-09-14T23:11:36.509Z,99.90
2022-09-14T23:14:03.629Z,99.90
2022-09-14T23:16:30.766Z,99.90
2022-09-14T23:18:58.572Z,99.90
2022-09-14T23:21:25.562Z,99.90
2022-09-14T23:23:54.358Z,99.90
2022-09-14T23:26:21.557Z,99.90
2022-09-14T23:28:52.179Z,99.90
2022-09-14T23:31:19.050Z,99.90
2022-09-14T23:33:48.457Z,99.90
2022-09-14T23:36:15.239Z,99.90
2022-09-14T23:38:41.945Z,99.90
2022-09-14T23:41:08.758Z,99.90
2022-09-14T23:43:35.498Z,99.90
2022-09-14T23:46:02.355Z,99.90
2022-09-14T23:48:29.177Z,99.90
2022-09-14T23:50:56.878Z,99.90
2022-09-14T23:53:23.826Z,99.90
2022-09-14T23:55:50.499Z,99.90
2022-09-14T23:58:17.419Z,99.90
